sensor_id;sensor_type;location;lat;lon;timestamp;temperature;humidity
40291;DHT22;26000;48.304;13.626;2022-12-26T00:01:18;4.70;99.90
40291;DHT22;26000;48.304;13.626;2022-12-26T00:03:44;4.70;99.90
40291;DHT22;26000;48.304;13.626;2022-12-26T00:06:15;4.70;99.90
40291;DHT22;26000;48.304;13.626;2022-12-26T00:08:42;4.70;99.90
40291;DHT22;26000;48.304;13.626;2022-12-26T00:11:08;4.60;99.90
40291;DHT22;26000;48.304;13.626;2022-12-26T00:13:33;4.70;99.90
40291;DHT22;26000;48.304;13.626;2022-12-26T00:15:59;4.70;99.90
40291;DHT22;26000;48.304;13.626;2022-12-26T00:18:25;4.50;99.90
40291;DHT22;26000;48.304;13.626;2022-12-26T00:20:50;4.50;99.90
40291;DHT22;26000;48.304;13.626;2022-12-26T00:23:16;4.40;99.90
40291;DHT22;26000;48.304;13.626;2022-12-26T00:25:41;4.40;99.90
40291;DHT22;26000;48.304;13.626;2022-12-26T00:28:07;4.40;99.90
40291;DHT22;26000;48.304;13.626;2022-12-26T00:30:32;4.40;99.90
40291;DHT22;26000;48.304;13.626;2022-12-26T00:32:58;4.30;99.90
40291;DHT22;26000;48.304;13.626;2022-12-26T00:35:24;4.30;99.90
40291;DHT22;26000;48.304;13.626;2022-12-26T00:37:49;4.40;99.90
40291;DHT22;26000;48.304;13.626;2022-12-26T00:40:15;4.40;99.90
40291;DHT22;26000;48.304;13.626;2022-12-26T00:42:40;4.40;99.90
40291;DHT22;26000;48.304;13.626;2022-12-26T00:45:06;4.50;99.90
40291;DHT22;26000;48.304;13.626;2022-12-26T00:47:32;4.40;99.90
40291;DHT22;26000;48.304;13.626;2022-12-26T00:49:57;4.30;99.90
40291;DHT22;26000;48.304;13.626;2022-12-26T00:52:23;4.30;99.90
40291;DHT22;26000;48.304;13.626;2022-12-26T00:54:48;4.30;99.90
40291;DHT22;26000;48.304;13.626;2022-12-26T00:57:14;4.40;99.90
40291;DHT22;26000;48.304;13.626;2022-12-26T00:59:39;4.40;99.90
40291;DHT22;26000;48.304;13.626;2022-12-26T01:02:05;4.40;99.90
40291;DHT22;26000;48.304;13.626;2022-12-26T01:04:51;4.40;99.90
40291;DHT22;26000;48.304;13.626;2022-12-26T01:07:16;4.40;99.90
40291;DHT22;26000;48.304;13.626;2022-12-26T01:09:42;4.40;99.90
40291;DHT22;26000;48.304;13.626;2022-12-26T01:12:07;4.30;99.90
40291;DHT22;26000;48.304;13.626;2022-12-26T01:14:33;4.20;99.90
40291;DHT22;26000;48.304;13.626;2022-12-26T01:16:58;4.10;99.90
40291;DHT22;26000;48.304;13.626;2022-12-26T01:19:24;4.10;99.90
40291;DHT22;26000;48.304;13.626;2022-12-26T01:21:49;4.10;99.90
40291;DHT22;26000;48.304;13.626;2022-12-26T01:24:15;4.10;99.90
40291;DHT22;26000;48.304;13.626;2022-12-26T01:26:40;4.20;99.90
40291;DHT22;26000;48.304;13.626;2022-12-26T01:29:07;4.10;99.90
40291;DHT22;26000;48.304;13.626;2022-12-26T01:31:33;4.10;99.90
40291;DHT22;26000;48.304;13.626;2022-12-26T01:33:58;4.10;99.90
40291;DHT22;26000;48.304;13.626;2022-12-26T01:36:24;4.00;99.90
40291;DHT22;26000;48.304;13.626;2022-12-26T01:38:49;4.10;99.90
40291;DHT22;26000;48.304;13.626;2022-12-26T01:41:15;4.00;99.90
40291;DHT22;26000;48.304;13.626;2022-12-26T01:44:02;4.00;99.90
40291;DHT22;26000;48.304;13.626;2022-12-26T01:46:36;4.00;99.90
40291;DHT22;26000;48.304;13.626;2022-12-26T01:49:30;4.00;99.90
40291;DHT22;26000;48.304;13.626;2022-12-26T01:51:58;4.00;99.90
40291;DHT22;26000;48.304;13.626;2022-12-26T01:54:26;4.00;99.90
40291;DHT22;26000;48.304;13.626;2022-12-26T01:56:54;3.90;99.90
40291;DHT22;26000;48.304;13.626;2022-12-26T01:59:26;3.90;99.90
40291;DHT22;26000;48.304;13.626;2022-12-26T02:01:53;3.90;99.90
40291;DHT22;26000;48.304;13.626;2022-12-26T02:04:23;3.80;99.90
40291;DHT22;26000;48.304;13.626;2022-12-26T02:07:09;3.80;99.90
40291;DHT22;26000;48.304;13.626;2022-12-26T02:09:35;3.90;99.90
40291;DHT22;26000;48.304;13.626;2022-12-26T02:12:07;3.90;99.90
40291;DHT22;26000;48.304;13.626;2022-12-26T02:14:36;3.80;99.90
40291;DHT22;26000;48.304;13.626;2022-12-26T02:17:02;3.70;99.90
40291;DHT22;26000;48.304;13.626;2022-12-26T02:22:18;3.80;99.90
40291;DHT22;26000;48.304;13.626;2022-12-26T02:33:34;3.80;99.90
40291;DHT22;26000;48.304;13.626;2022-12-26T02:36:25;3.90;99.90
40291;DHT22;26000;48.304;13.626;2022-12-26T02:39:16;3.90;99.90
40291;DHT22;26000;48.304;13.626;2022-12-26T02:44:36;4.00;99.90
40291;DHT22;26000;48.304;13.626;2022-12-26T02:50:31;4.10;99.90
40291;DHT22;26000;48.304;13.626;2022-12-26T02:56:12;4.30;99.90
40291;DHT22;26000;48.304;13.626;2022-12-26T02:59:17;4.20;99.90
40291;DHT22;26000;48.304;13.626;2022-12-26T03:02:06;4.10;99.90
40291;DHT22;26000;48.304;13.626;2022-12-26T03:04:55;4.10;99.90
40291;DHT22;26000;48.304;13.626;2022-12-26T03:07:42;4.20;99.90
40291;DHT22;26000;48.304;13.626;2022-12-26T03:10:31;4.10;99.90
40291;DHT22;26000;48.304;13.626;2022-12-26T03:13:21;4.10;99.90
40291;DHT22;26000;48.304;13.626;2022-12-26T03:15:56;4.10;99.90
40291;DHT22;26000;48.304;13.626;2022-12-26T03:18:45;4.10;99.90
40291;DHT22;26000;48.304;13.626;2022-12-26T03:21:13;4.20;99.90
40291;DHT22;26000;48.304;13.626;2022-12-26T03:23:43;4.20;99.90
40291;DHT22;26000;48.304;13.626;2022-12-26T03:26:17;4.20;99.90
40291;DHT22;26000;48.304;13.626;2022-12-26T03:29:04;4.30;99.90
40291;DHT22;26000;48.304;13.626;2022-12-26T03:31:49;4.40;99.90
40291;DHT22;26000;48.304;13.626;2022-12-26T03:34:14;4.40;99.90
40291;DHT22;26000;48.304;13.626;2022-12-26T03:42:28;4.30;99.90
40291;DHT22;26000;48.304;13.626;2022-12-26T03:48:56;4.30;99.90
40291;DHT22;26000;48.304;13.626;2022-12-26T03:58:29;4.50;99.90
40291;DHT22;26000;48.304;13.626;2022-12-26T04:01:18;4.50;99.90
40291;DHT22;26000;48.304;13.626;2022-12-26T04:04:05;4.60;99.90
40291;DHT22;26000;48.304;13.626;2022-12-26T04:07:02;4.60;99.90
40291;DHT22;26000;48.304;13.626;2022-12-26T04:09:56;4.70;99.90
40291;DHT22;26000;48.304;13.626;2022-12-26T04:12:42;4.60;99.90
40291;DHT22;26000;48.304;13.626;2022-12-26T04:18:45;4.60;99.90
40291;DHT22;26000;48.304;13.626;2022-12-26T04:21:46;4.60;99.90
40291;DHT22;26000;48.304;13.626;2022-12-26T04:24:39;4.50;99.90
40291;DHT22;26000;48.304;13.626;2022-12-26T04:27:28;4.50;99.90
40291;DHT22;26000;48.304;13.626;2022-12-26T04:30:14;4.40;99.90
40291;DHT22;26000;48.304;13.626;2022-12-26T04:33:08;4.50;99.90
40291;DHT22;26000;48.304;13.626;2022-12-26T04:36:17;4.60;99.90
40291;DHT22;26000;48.304;13.626;2022-12-26T04:39:04;4.60;99.90
40291;DHT22;26000;48.304;13.626;2022-12-26T04:41:50;4.50;99.90
40291;DHT22;26000;48.304;13.626;2022-12-26T04:44:36;4.70;99.90
40291;DHT22;26000;48.304;13.626;2022-12-26T04:47:03;4.70;99.90
40291;DHT22;26000;48.304;13.626;2022-12-26T04:49:28;4.60;99.90
40291;DHT22;26000;48.304;13.626;2022-12-26T04:52:13;4.60;99.90
40291;DHT22;26000;48.304;13.626;2022-12-26T04:54:40;4.50;99.90
40291;DHT22;26000;48.304;13.626;2022-12-26T04:57:06;4.40;99.90
40291;DHT22;26000;48.304;13.626;2022-12-26T04:59:32;4.40;99.90
40291;DHT22;26000;48.304;13.626;2022-12-26T05:01:58;4.40;99.90
40291;DHT22;26000;48.304;13.626;2022-12-26T05:04:42;4.40;99.90
40291;DHT22;26000;48.304;13.626;2022-12-26T05:07:30;4.40;99.90
40291;DHT22;26000;48.304;13.626;2022-12-26T05:10:20;4.50;99.90
40291;DHT22;26000;48.304;13.626;2022-12-26T05:12:46;4.50;99.90
40291;DHT22;26000;48.304;13.626;2022-12-26T05:15:13;4.50;99.90
40291;DHT22;26000;48.304;13.626;2022-12-26T05:17:39;4.50;99.90
40291;DHT22;26000;48.304;13.626;2022-12-26T05:20:23;4.50;99.90
40291;DHT22;26000;48.304;13.626;2022-12-26T05:22:55;4.50;99.90
40291;DHT22;26000;48.304;13.626;2022-12-26T05:25:41;4.60;99.90
40291;DHT22;26000;48.304;13.626;2022-12-26T05:28:26;4.50;99.90
40291;DHT22;26000;48.304;13.626;2022-12-26T05:31:15;4.60;99.90
40291;DHT22;26000;48.304;13.626;2022-12-26T05:33:41;4.60;99.90
40291;DHT22;26000;48.304;13.626;2022-12-26T05:36:35;4.60;99.90
40291;DHT22;26000;48.304;13.626;2022-12-26T05:39:02;4.50;99.90
40291;DHT22;26000;48.304;13.626;2022-12-26T05:41:28;4.50;99.90
40291;DHT22;26000;48.304;13.626;2022-12-26T05:43:53;4.50;99.90
40291;DHT22;26000;48.304;13.626;2022-12-26T05:46:19;4.60;99.90
40291;DHT22;26000;48.304;13.626;2022-12-26T05:48:44;4.50;99.90
40291;DHT22;26000;48.304;13.626;2022-12-26T05:51:11;4.50;99.90
40291;DHT22;26000;48.304;13.626;2022-12-26T05:53:37;4.40;99.90
40291;DHT22;26000;48.304;13.626;2022-12-26T05:56:11;4.40;99.90
40291;DHT22;26000;48.304;13.626;2022-12-26T05:58:38;4.40;99.90
40291;DHT22;26000;48.304;13.626;2022-12-26T06:03:32;4.30;99.90
40291;DHT22;26000;48.304;13.626;2022-12-26T06:05:58;4.30;99.90
40291;DHT22;26000;48.304;13.626;2022-12-26T06:08:24;4.40;99.90
40291;DHT22;26000;48.304;13.626;2022-12-26T06:10:49;4.40;99.90
40291;DHT22;26000;48.304;13.626;2022-12-26T06:13:15;4.30;99.90
40291;DHT22;26000;48.304;13.626;2022-12-26T06:15:50;4.30;99.90
40291;DHT22;26000;48.304;13.626;2022-12-26T06:18:16;4.30;99.90
40291;DHT22;26000;48.304;13.626;2022-12-26T06:20:41;4.50;99.90
40291;DHT22;26000;48.304;13.626;2022-12-26T06:23:07;4.50;99.90
40291;DHT22;26000;48.304;13.626;2022-12-26T06:25:33;4.70;99.90
40291;DHT22;26000;48.304;13.626;2022-12-26T06:27:59;4.70;99.90
40291;DHT22;26000;48.304;13.626;2022-12-26T06:30:24;4.60;99.90
40291;DHT22;26000;48.304;13.626;2022-12-26T06:32:50;4.50;99.90
40291;DHT22;26000;48.304;13.626;2022-12-26T06:35:15;4.50;99.90
40291;DHT22;26000;48.304;13.626;2022-12-26T06:37:41;4.50;99.90
40291;DHT22;26000;48.304;13.626;2022-12-26T06:40:07;4.50;99.90
40291;DHT22;26000;48.304;13.626;2022-12-26T06:42:33;4.50;99.90
40291;DHT22;26000;48.304;13.626;2022-12-26T06:44:58;4.40;99.90
40291;DHT22;26000;48.304;13.626;2022-12-26T06:47:24;4.40;99.90
40291;DHT22;26000;48.304;13.626;2022-12-26T06:49:49;4.40;99.90
40291;DHT22;26000;48.304;13.626;2022-12-26T06:52:15;4.30;99.90
40291;DHT22;26000;48.304;13.626;2022-12-26T06:54:40;4.30;99.90
40291;DHT22;26000;48.304;13.626;2022-12-26T06:57:06;4.40;99.90
40291;DHT22;26000;48.304;13.626;2022-12-26T06:59:32;4.40;99.90
40291;DHT22;26000;48.304;13.626;2022-12-26T07:01:57;4.50;99.90
40291;DHT22;26000;48.304;13.626;2022-12-26T07:04:23;4.40;99.90
40291;DHT22;26000;48.304;13.626;2022-12-26T07:06:49;4.50;99.90
40291;DHT22;26000;48.304;13.626;2022-12-26T07:09:16;4.40;99.90
40291;DHT22;26000;48.304;13.626;2022-12-26T07:11:45;4.40;99.90
40291;DHT22;26000;48.304;13.626;2022-12-26T07:14:11;4.30;99.90
40291;DHT22;26000;48.304;13.626;2022-12-26T07:16:39;4.30;99.90
40291;DHT22;26000;48.304;13.626;2022-12-26T07:19:05;4.30;99.90
40291;DHT22;26000;48.304;13.626;2022-12-26T07:21:31;4.20;99.90
40291;DHT22;26000;48.304;13.626;2022-12-26T07:23:56;4.10;99.90
40291;DHT22;26000;48.304;13.626;2022-12-26T07:26:23;4.10;99.90
40291;DHT22;26000;48.304;13.626;2022-12-26T07:28:56;4.20;99.90
40291;DHT22;26000;48.304;13.626;2022-12-26T07:31:23;4.20;99.90
40291;DHT22;26000;48.304;13.626;2022-12-26T07:33:52;4.20;99.90
40291;DHT22;26000;48.304;13.626;2022-12-26T07:36:18;4.20;99.90
40291;DHT22;26000;48.304;13.626;2022-12-26T07:38:45;4.10;99.90
40291;DHT22;26000;48.304;13.626;2022-12-26T07:41:11;4.10;99.90
40291;DHT22;26000;48.304;13.626;2022-12-26T07:43:55;4.00;99.90
40291;DHT22;26000;48.304;13.626;2022-12-26T07:46:21;4.00;99.90
40291;DHT22;26000;48.304;13.626;2022-12-26T07:48:46;4.10;99.90
40291;DHT22;26000;48.304;13.626;2022-12-26T07:51:12;4.20;99.90
40291;DHT22;26000;48.304;13.626;2022-12-26T07:53:38;4.20;99.90
40291;DHT22;26000;48.304;13.626;2022-12-26T07:56:04;4.20;99.90
40291;DHT22;26000;48.304;13.626;2022-12-26T07:58:29;4.40;99.90
40291;DHT22;26000;48.304;13.626;2022-12-26T08:00:55;4.40;99.90
40291;DHT22;26000;48.304;13.626;2022-12-26T08:03:21;4.50;99.90
40291;DHT22;26000;48.304;13.626;2022-12-26T08:05:50;4.50;99.90
40291;DHT22;26000;48.304;13.626;2022-12-26T08:08:16;4.50;99.90
40291;DHT22;26000;48.304;13.626;2022-12-26T08:10:41;4.60;99.90
40291;DHT22;26000;48.304;13.626;2022-12-26T08:13:07;4.50;99.90
40291;DHT22;26000;48.304;13.626;2022-12-26T08:15:33;4.60;99.90
40291;DHT22;26000;48.304;13.626;2022-12-26T08:17:59;4.60;99.90
40291;DHT22;26000;48.304;13.626;2022-12-26T08:20:24;4.70;99.90
40291;DHT22;26000;48.304;13.626;2022-12-26T08:22:50;4.70;99.90
40291;DHT22;26000;48.304;13.626;2022-12-26T08:25:16;4.70;99.90
40291;DHT22;26000;48.304;13.626;2022-12-26T08:27:41;4.90;99.90
40291;DHT22;26000;48.304;13.626;2022-12-26T08:30:08;5.00;99.90
40291;DHT22;26000;48.304;13.626;2022-12-26T08:32:43;5.00;99.90
40291;DHT22;26000;48.304;13.626;2022-12-26T08:35:09;5.00;99.90
40291;DHT22;26000;48.304;13.626;2022-12-26T08:37:34;4.90;99.90
40291;DHT22;26000;48.304;13.626;2022-12-26T08:40:00;4.90;99.90
40291;DHT22;26000;48.304;13.626;2022-12-26T08:42:25;5.00;99.90
40291;DHT22;26000;48.304;13.626;2022-12-26T08:44:51;5.00;99.90
40291;DHT22;26000;48.304;13.626;2022-12-26T08:47:16;5.00;99.90
40291;DHT22;26000;48.304;13.626;2022-12-26T08:49:42;5.00;99.90
40291;DHT22;26000;48.304;13.626;2022-12-26T08:52:08;4.90;99.90
40291;DHT22;26000;48.304;13.626;2022-12-26T08:54:33;4.90;99.90
40291;DHT22;26000;48.304;13.626;2022-12-26T08:56:59;5.00;99.90
40291;DHT22;26000;48.304;13.626;2022-12-26T08:59:24;5.10;99.90
40291;DHT22;26000;48.304;13.626;2022-12-26T09:01:50;5.20;99.90
40291;DHT22;26000;48.304;13.626;2022-12-26T09:04:16;5.30;99.90
40291;DHT22;26000;48.304;13.626;2022-12-26T09:06:41;5.40;99.90
40291;DHT22;26000;48.304;13.626;2022-12-26T09:09:09;5.50;99.90
40291;DHT22;26000;48.304;13.626;2022-12-26T09:11:39;5.50;99.90
40291;DHT22;26000;48.304;13.626;2022-12-26T09:14:05;5.40;99.90
40291;DHT22;26000;48.304;13.626;2022-12-26T09:16:34;5.30;99.90
40291;DHT22;26000;48.304;13.626;2022-12-26T09:19:04;5.30;99.90
40291;DHT22;26000;48.304;13.626;2022-12-26T09:21:30;5.30;99.90
40291;DHT22;26000;48.304;13.626;2022-12-26T09:24:02;5.40;99.90
40291;DHT22;26000;48.304;13.626;2022-12-26T09:26:28;5.50;99.90
40291;DHT22;26000;48.304;13.626;2022-12-26T09:28:55;5.40;99.90
40291;DHT22;26000;48.304;13.626;2022-12-26T09:31:23;5.50;99.90
40291;DHT22;26000;48.304;13.626;2022-12-26T09:33:49;5.70;99.90
40291;DHT22;26000;48.304;13.626;2022-12-26T09:36:18;5.80;99.90
40291;DHT22;26000;48.304;13.626;2022-12-26T09:38:45;6.00;99.90
40291;DHT22;26000;48.304;13.626;2022-12-26T09:44:12;6.20;99.90
40291;DHT22;26000;48.304;13.626;2022-12-26T09:47:18;6.30;99.90
40291;DHT22;26000;48.304;13.626;2022-12-26T09:49:54;6.30;99.90
40291;DHT22;26000;48.304;13.626;2022-12-26T09:52:45;6.30;99.90
40291;DHT22;26000;48.304;13.626;2022-12-26T09:55:26;6.30;99.90
40291;DHT22;26000;48.304;13.626;2022-12-26T09:57:58;6.20;99.90
40291;DHT22;26000;48.304;13.626;2022-12-26T10:00:35;6.30;99.90
40291;DHT22;26000;48.304;13.626;2022-12-26T10:03:03;6.40;99.90
40291;DHT22;26000;48.304;13.626;2022-12-26T10:05:35;6.60;99.90
40291;DHT22;26000;48.304;13.626;2022-12-26T10:11:01;6.70;99.90
40291;DHT22;26000;48.304;13.626;2022-12-26T10:13:39;6.70;99.90
40291;DHT22;26000;48.304;13.626;2022-12-26T10:16:12;6.80;99.90
40291;DHT22;26000;48.304;13.626;2022-12-26T10:19:01;6.80;99.90
40291;DHT22;26000;48.304;13.626;2022-12-26T10:21:57;7.00;99.90
40291;DHT22;26000;48.304;13.626;2022-12-26T10:24:26;7.10;99.90
40291;DHT22;26000;48.304;13.626;2022-12-26T10:26:59;7.30;99.90
40291;DHT22;26000;48.304;13.626;2022-12-26T10:29:38;7.40;99.90
40291;DHT22;26000;48.304;13.626;2022-12-26T10:32:12;7.60;99.90
40291;DHT22;26000;48.304;13.626;2022-12-26T10:34:42;7.70;99.90
40291;DHT22;26000;48.304;13.626;2022-12-26T10:37:39;7.90;99.90
40291;DHT22;26000;48.304;13.626;2022-12-26T10:42:45;8.10;99.90
40291;DHT22;26000;48.304;13.626;2022-12-26T10:45:31;8.20;99.90
40291;DHT22;26000;48.304;13.626;2022-12-26T10:48:01;8.20;99.90
40291;DHT22;26000;48.304;13.626;2022-12-26T10:50:28;8.20;99.90
40291;DHT22;26000;48.304;13.626;2022-12-26T10:52:56;8.20;99.90
40291;DHT22;26000;48.304;13.626;2022-12-26T10:55:29;8.20;99.90
40291;DHT22;26000;48.304;13.626;2022-12-26T10:57:58;8.10;99.90
40291;DHT22;26000;48.304;13.626;2022-12-26T11:00:26;8.10;99.90
40291;DHT22;26000;48.304;13.626;2022-12-26T11:05:39;8.00;99.90
40291;DHT22;26000;48.304;13.626;2022-12-26T11:08:19;8.00;99.90
40291;DHT22;26000;48.304;13.626;2022-12-26T11:13:53;8.00;99.90
40291;DHT22;26000;48.304;13.626;2022-12-26T11:16:24;8.10;99.90
40291;DHT22;26000;48.304;13.626;2022-12-26T11:18:51;8.30;99.90
40291;DHT22;26000;48.304;13.626;2022-12-26T11:23:48;8.50;99.90
40291;DHT22;26000;48.304;13.626;2022-12-26T11:26:25;8.50;99.90
40291;DHT22;26000;48.304;13.626;2022-12-26T11:31:42;8.30;99.90
40291;DHT22;26000;48.304;13.626;2022-12-26T11:34:25;8.30;99.90
40291;DHT22;26000;48.304;13.626;2022-12-26T11:36:52;8.20;99.90
40291;DHT22;26000;48.304;13.626;2022-12-26T11:39:22;8.20;99.90
40291;DHT22;26000;48.304;13.626;2022-12-26T11:41:48;8.20;99.90
40291;DHT22;26000;48.304;13.626;2022-12-26T11:44:34;8.20;99.90
40291;DHT22;26000;48.304;13.626;2022-12-26T11:47:10;8.20;99.90
40291;DHT22;26000;48.304;13.626;2022-12-26T11:49:59;8.30;99.90
40291;DHT22;26000;48.304;13.626;2022-12-26T11:52:45;8.50;99.90
40291;DHT22;26000;48.304;13.626;2022-12-26T11:55:30;8.70;99.90
40291;DHT22;26000;48.304;13.626;2022-12-26T12:00:40;8.60;99.90
40291;DHT22;26000;48.304;13.626;2022-12-26T12:03:12;8.60;99.90
40291;DHT22;26000;48.304;13.626;2022-12-26T12:14:00;8.70;99.90
40291;DHT22;26000;48.304;13.626;2022-12-26T12:25:27;8.80;99.90
40291;DHT22;26000;48.304;13.626;2022-12-26T12:47:19;8.60;99.90
40291;DHT22;26000;48.304;13.626;2022-12-26T12:55:25;8.70;99.90
40291;DHT22;26000;48.304;13.626;2022-12-26T12:58:24;8.60;99.90
40291;DHT22;26000;48.304;13.626;2022-12-26T13:01:05;8.60;99.90
40291;DHT22;26000;48.304;13.626;2022-12-26T13:03:45;8.60;99.90
40291;DHT22;26000;48.304;13.626;2022-12-26T13:06:17;8.60;99.90
40291;DHT22;26000;48.304;13.626;2022-12-26T13:08:57;8.60;99.90
40291;DHT22;26000;48.304;13.626;2022-12-26T13:11:49;8.50;99.90
40291;DHT22;26000;48.304;13.626;2022-12-26T13:14:22;8.50;99.90
40291;DHT22;26000;48.304;13.626;2022-12-26T13:16:57;8.50;99.90
40291;DHT22;26000;48.304;13.626;2022-12-26T13:19:28;8.50;99.90
40291;DHT22;26000;48.304;13.626;2022-12-26T13:21:59;8.40;99.90
40291;DHT22;26000;48.304;13.626;2022-12-26T13:24:39;8.40;99.90
40291;DHT22;26000;48.304;13.626;2022-12-26T13:29:44;8.40;99.90
40291;DHT22;26000;48.304;13.626;2022-12-26T13:32:36;8.30;99.90
40291;DHT22;26000;48.304;13.626;2022-12-26T13:35:02;8.30;99.90
40291;DHT22;26000;48.304;13.626;2022-12-26T13:40:19;8.30;99.90
40291;DHT22;26000;48.304;13.626;2022-12-26T13:43:08;8.30;99.90
40291;DHT22;26000;48.304;13.626;2022-12-26T13:45:59;8.30;99.90
40291;DHT22;26000;48.304;13.626;2022-12-26T13:51:03;8.30;99.90
40291;DHT22;26000;48.304;13.626;2022-12-26T13:53:39;8.30;99.90
40291;DHT22;26000;48.304;13.626;2022-12-26T14:07:41;8.30;99.90
40291;DHT22;26000;48.304;13.626;2022-12-26T14:16:18;8.60;99.90
40291;DHT22;26000;48.304;13.626;2022-12-26T14:19:31;8.60;99.90
40291;DHT22;26000;48.304;13.626;2022-12-26T14:22:06;8.60;99.90
40291;DHT22;26000;48.304;13.626;2022-12-26T14:24:58;8.60;99.90
40291;DHT22;26000;48.304;13.626;2022-12-26T14:27:32;8.60;99.90
40291;DHT22;26000;48.304;13.626;2022-12-26T14:35:39;8.70;99.90
40291;DHT22;26000;48.304;13.626;2022-12-26T14:41:08;8.90;99.90
40291;DHT22;26000;48.304;13.626;2022-12-26T14:43:54;8.90;99.90
40291;DHT22;26000;48.304;13.626;2022-12-26T14:49:16;8.90;99.90
40291;DHT22;26000;48.304;13.626;2022-12-26T14:51:42;8.80;99.90
40291;DHT22;26000;48.304;13.626;2022-12-26T14:56:50;9.00;99.90
40291;DHT22;26000;48.304;13.626;2022-12-26T14:59:33;8.90;99.90
40291;DHT22;26000;48.304;13.626;2022-12-26T15:02:30;8.90;99.90
40291;DHT22;26000;48.304;13.626;2022-12-26T15:05:21;8.90;99.90
40291;DHT22;26000;48.304;13.626;2022-12-26T15:17:23;9.00;99.90
40291;DHT22;26000;48.304;13.626;2022-12-26T15:20:26;8.90;99.90
40291;DHT22;26000;48.304;13.626;2022-12-26T15:34:51;8.80;99.90
40291;DHT22;26000;48.304;13.626;2022-12-26T15:40:09;8.70;99.90
40291;DHT22;26000;48.304;13.626;2022-12-26T15:48:26;8.60;99.90
40291;DHT22;26000;48.304;13.626;2022-12-26T15:51:01;8.60;99.90
40291;DHT22;26000;48.304;13.626;2022-12-26T15:57:10;8.60;99.90
40291;DHT22;26000;48.304;13.626;2022-12-26T16:00:07;8.60;99.90
40291;DHT22;26000;48.304;13.626;2022-12-26T16:02:59;8.60;99.90
40291;DHT22;26000;48.304;13.626;2022-12-26T16:11:54;8.60;99.90
40291;DHT22;26000;48.304;13.626;2022-12-26T16:17:19;8.70;99.90
40291;DHT22;26000;48.304;13.626;2022-12-26T16:19:47;8.70;99.90
40291;DHT22;26000;48.304;13.626;2022-12-26T16:22:38;8.80;99.90
40291;DHT22;26000;48.304;13.626;2022-12-26T16:25:12;8.80;99.90
40291;DHT22;26000;48.304;13.626;2022-12-26T16:27:39;8.90;99.90
40291;DHT22;26000;48.304;13.626;2022-12-26T16:30:12;9.00;99.90
40291;DHT22;26000;48.304;13.626;2022-12-26T16:32:40;9.00;99.90
40291;DHT22;26000;48.304;13.626;2022-12-26T16:35:31;9.00;99.90
40291;DHT22;26000;48.304;13.626;2022-12-26T16:37:59;9.00;99.90
40291;DHT22;26000;48.304;13.626;2022-12-26T16:40:30;9.00;99.90
40291;DHT22;26000;48.304;13.626;2022-12-26T16:43:00;9.00;99.90
40291;DHT22;26000;48.304;13.626;2022-12-26T16:45:27;9.00;99.90
40291;DHT22;26000;48.304;13.626;2022-12-26T16:47:54;9.00;99.90
40291;DHT22;26000;48.304;13.626;2022-12-26T16:50:25;9.10;99.90
40291;DHT22;26000;48.304;13.626;2022-12-26T16:53:07;9.00;99.90
40291;DHT22;26000;48.304;13.626;2022-12-26T16:58:11;9.10;99.90
40291;DHT22;26000;48.304;13.626;2022-12-26T17:00:37;9.10;99.90
40291;DHT22;26000;48.304;13.626;2022-12-26T17:03:08;9.10;99.90
40291;DHT22;26000;48.304;13.626;2022-12-26T17:05:35;9.10;99.90
40291;DHT22;26000;48.304;13.626;2022-12-26T17:08:03;9.20;99.90
40291;DHT22;26000;48.304;13.626;2022-12-26T17:10:32;9.90;99.90
40291;DHT22;26000;48.304;13.626;2022-12-26T17:13:05;10.60;99.90
40291;DHT22;26000;48.304;13.626;2022-12-26T17:15:36;10.70;99.90
40291;DHT22;26000;48.304;13.626;2022-12-26T17:26:36;9.80;99.90
40291;DHT22;26000;48.304;13.626;2022-12-26T17:29:02;9.60;99.90
40291;DHT22;26000;48.304;13.626;2022-12-26T17:31:36;9.60;99.90
40291;DHT22;26000;48.304;13.626;2022-12-26T17:34:07;9.50;99.90
40291;DHT22;26000;48.304;13.626;2022-12-26T17:36:37;9.50;99.90
40291;DHT22;26000;48.304;13.626;2022-12-26T17:39:22;9.50;99.90
40291;DHT22;26000;48.304;13.626;2022-12-26T17:41:52;9.50;99.90
40291;DHT22;26000;48.304;13.626;2022-12-26T17:44:41;9.50;99.90
40291;DHT22;26000;48.304;13.626;2022-12-26T17:47:25;9.40;99.90
40291;DHT22;26000;48.304;13.626;2022-12-26T17:49:53;9.50;99.90
40291;DHT22;26000;48.304;13.626;2022-12-26T17:52:25;9.50;99.90
40291;DHT22;26000;48.304;13.626;2022-12-26T17:54:52;9.50;99.90
40291;DHT22;26000;48.304;13.626;2022-12-26T17:57:21;9.50;99.90
40291;DHT22;26000;48.304;13.626;2022-12-26T17:59:48;9.50;99.90
40291;DHT22;26000;48.304;13.626;2022-12-26T18:02:15;9.50;99.90
40291;DHT22;26000;48.304;13.626;2022-12-26T18:04:40;9.50;99.90
40291;DHT22;26000;48.304;13.626;2022-12-26T18:07:07;9.50;99.90
40291;DHT22;26000;48.304;13.626;2022-12-26T18:09:34;9.40;99.90
40291;DHT22;26000;48.304;13.626;2022-12-26T18:12:01;9.40;99.90
40291;DHT22;26000;48.304;13.626;2022-12-26T18:14:27;9.40;99.90
40291;DHT22;26000;48.304;13.626;2022-12-26T18:16:53;9.20;99.90
40291;DHT22;26000;48.304;13.626;2022-12-26T18:19:18;9.30;99.90
40291;DHT22;26000;48.304;13.626;2022-12-26T18:21:45;9.40;99.90
40291;DHT22;26000;48.304;13.626;2022-12-26T18:24:11;9.30;99.90
40291;DHT22;26000;48.304;13.626;2022-12-26T18:26:37;9.30;99.90
40291;DHT22;26000;48.304;13.626;2022-12-26T18:29:03;9.30;99.90
40291;DHT22;26000;48.304;13.626;2022-12-26T18:31:29;9.20;99.90
40291;DHT22;26000;48.304;13.626;2022-12-26T18:33:56;9.10;99.90
40291;DHT22;26000;48.304;13.626;2022-12-26T18:36:36;9.20;99.90
40291;DHT22;26000;48.304;13.626;2022-12-26T18:39:03;9.20;99.90
40291;DHT22;26000;48.304;13.626;2022-12-26T18:41:31;9.20;99.90
40291;DHT22;26000;48.304;13.626;2022-12-26T18:43:57;9.20;99.90
40291;DHT22;26000;48.304;13.626;2022-12-26T18:46:24;9.40;99.90
40291;DHT22;26000;48.304;13.626;2022-12-26T18:48:52;9.40;99.90
40291;DHT22;26000;48.304;13.626;2022-12-26T18:51:24;9.50;99.90
40291;DHT22;26000;48.304;13.626;2022-12-26T18:53:50;9.40;99.90
40291;DHT22;26000;48.304;13.626;2022-12-26T18:56:18;9.40;99.90
40291;DHT22;26000;48.304;13.626;2022-12-26T18:58:45;9.40;99.90
40291;DHT22;26000;48.304;13.626;2022-12-26T19:01:13;9.30;99.90
40291;DHT22;26000;48.304;13.626;2022-12-26T19:03:40;9.40;99.90
40291;DHT22;26000;48.304;13.626;2022-12-26T19:06:10;9.40;99.90
40291;DHT22;26000;48.304;13.626;2022-12-26T19:08:36;9.40;99.90
40291;DHT22;26000;48.304;13.626;2022-12-26T19:11:02;9.40;99.90
40291;DHT22;26000;48.304;13.626;2022-12-26T19:13:27;9.50;99.90
40291;DHT22;26000;48.304;13.626;2022-12-26T19:15:53;9.50;99.90
40291;DHT22;26000;48.304;13.626;2022-12-26T19:18:19;9.40;99.90
40291;DHT22;26000;48.304;13.626;2022-12-26T19:20:44;9.30;99.90
40291;DHT22;26000;48.304;13.626;2022-12-26T19:23:10;9.30;99.90